SKW8606 KPHX-KGJT
Flight info
| Callsign | SKW8606 |
|---|---|
| Flight time | 0h 56m |
| Altitude | 31000 |
| Route | MRBIL1 YOOPR KD39Q JNC |
| Aircraft | CRJ7/M-SDFGIRWY/S |
Departure
| Time | 2026-05-07 18:26 |
|---|---|
| Airport | Phoenix Sky Harbor International Airport (KPHX) |
Arrival
| Time | 2026-05-07 19:22 |
|---|---|
| Airport | Grand Junction Regional Airport (KGJT) |
| Time | Latitude | Longitude | Altitude | Speed | Heading |
|---|---|---|---|---|---|
| 2026-05-07 18:00 | 33.43702 | -111.99494 | 1170 ft | 0 kts | 92° |
| 2026-05-07 18:10 | 33.43702 | -111.99498 | 1158 ft | 2 kts | 91° |
| 2026-05-07 18:10 | 33.43701 | -111.99517 | 1162 ft | 3 kts | 56° |
| 2026-05-07 18:10 | 33.43688 | -111.99531 | 1162 ft | 3 kts | 15° |
| 2026-05-07 18:11 | 33.43674 | -111.99534 | 1163 ft | 1 kts | 0° |
| 2026-05-07 18:20 | 33.43683 | -111.99534 | 1165 ft | 5 kts | 360° |
| 2026-05-07 18:20 | 33.43749 | -111.99534 | 1166 ft | 15 kts | 360° |
| 2026-05-07 18:20 | 33.43859 | -111.99534 | 1168 ft | 11 kts | 360° |
| 2026-05-07 18:20 | 33.43903 | -111.99591 | 1167 ft | 13 kts | 271° |
| 2026-05-07 18:21 | 33.43903 | -111.99722 | 1166 ft | 22 kts | 269° |
| 2026-05-07 18:21 | 33.43903 | -111.99915 | 1165 ft | 25 kts | 269° |
| 2026-05-07 18:21 | 33.43905 | -112.00140 | 1165 ft | 29 kts | 270° |
| 2026-05-07 18:21 | 33.43885 | -112.00366 | 1166 ft | 24 kts | 222° |
| 2026-05-07 18:22 | 33.43720 | -112.00381 | 1167 ft | 26 kts | 180° |
| 2026-05-07 18:22 | 33.43661 | -112.00382 | 1166 ft | 27 kts | 180° |
| 2026-05-07 18:22 | 33.43394 | -112.00382 | 1168 ft | 26 kts | 180° |
| 2026-05-07 18:22 | 33.43282 | -112.00477 | 1166 ft | 19 kts | 276° |
| 2026-05-07 18:23 | 33.43288 | -112.00660 | 1170 ft | 25 kts | 270° |
| 2026-05-07 18:23 | 33.43289 | -112.00809 | 1170 ft | 28 kts | 270° |
| 2026-05-07 18:23 | 33.43289 | -112.01054 | 1165 ft | 31 kts | 270° |
| 2026-05-07 18:23 | 33.43288 | -112.01328 | 1156 ft | 35 kts | 270° |
| 2026-05-07 18:24 | 33.43289 | -112.01612 | 1158 ft | 34 kts | 270° |
| 2026-05-07 18:24 | 33.43289 | -112.01896 | 1167 ft | 31 kts | 270° |
| 2026-05-07 18:24 | 33.43289 | -112.02167 | 1158 ft | 34 kts | 270° |
| 2026-05-07 18:24 | 33.43290 | -112.02450 | 1160 ft | 31 kts | 270° |
| 2026-05-07 18:25 | 33.43289 | -112.02653 | 1156 ft | 21 kts | 264° |
| 2026-05-07 18:25 | 33.43190 | -112.02701 | 1151 ft | 19 kts | 179° |
| 2026-05-07 18:25 | 33.43106 | -112.02624 | 1160 ft | 23 kts | 90° |
| 2026-05-07 18:25 | 33.43106 | -112.02174 | 1162 ft | 92 kts | 90° |
| 2026-05-07 18:26 | 33.43105 | -112.01116 | 1168 ft | 159 kts | 90° |
| 2026-05-07 18:26 | 33.43118 | -111.99685 | 1706 ft | 172 kts | 89° |
| 2026-05-07 18:26 | 33.43146 | -111.98284 | 2599 ft | 168 kts | 89° |
| 2026-05-07 18:26 | 33.43202 | -111.96874 | 3403 ft | 169 kts | 86° |
| 2026-05-07 18:27 | 33.43281 | -111.95450 | 4126 ft | 177 kts | 85° |
| 2026-05-07 18:27 | 33.43359 | -111.93867 | 4613 ft | 201 kts | 85° |
| 2026-05-07 18:27 | 33.43448 | -111.92155 | 5037 ft | 218 kts | 85° |
| 2026-05-07 18:27 | 33.43535 | -111.90314 | 5748 ft | 223 kts | 85° |
| 2026-05-07 18:28 | 33.43677 | -111.88452 | 6473 ft | 227 kts | 74° |
| 2026-05-07 18:28 | 33.44557 | -111.86918 | 7125 ft | 229 kts | 32° |
| 2026-05-07 18:28 | 33.46098 | -111.86432 | 7712 ft | 241 kts | 355° |
| 2026-05-07 18:28 | 33.47735 | -111.87108 | 8075 ft | 259 kts | 336° |
| 2026-05-07 18:29 | 33.49509 | -111.87666 | 8424 ft | 269 kts | 1° |
| 2026-05-07 18:29 | 33.51360 | -111.87351 | 9082 ft | 270 kts | 14° |
| 2026-05-07 18:29 | 33.53188 | -111.86766 | 9735 ft | 272 kts | 15° |
| 2026-05-07 18:29 | 33.55036 | -111.86195 | 10324 ft | 275 kts | 14° |
| 2026-05-07 18:30 | 33.56958 | -111.85679 | 10580 ft | 291 kts | 12° |
| 2026-05-07 18:30 | 33.58972 | -111.85193 | 10863 ft | 304 kts | 12° |
| 2026-05-07 18:30 | 33.62694 | -111.84309 | 11843 ft | 309 kts | 12° |
| 2026-05-07 18:30 | 33.66941 | -111.83188 | 12978 ft | 314 kts | 16° |
| 2026-05-07 18:31 | 33.71154 | -111.81768 | 14067 ft | 317 kts | 18° |
| 2026-05-07 18:31 | 33.75447 | -111.80307 | 15027 ft | 321 kts | 18° |
| 2026-05-07 18:31 | 33.79717 | -111.78780 | 15956 ft | 324 kts | 27° |
| 2026-05-07 18:31 | 33.83428 | -111.75708 | 16845 ft | 326 kts | 40° |
| 2026-05-07 18:32 | 33.86949 | -111.72249 | 17725 ft | 328 kts | 40° |
| 2026-05-07 18:32 | 33.90584 | -111.68851 | 18509 ft | 331 kts | 38° |
| 2026-05-07 18:32 | 33.94268 | -111.65471 | 19205 ft | 334 kts | 38° |
| 2026-05-07 18:32 | 33.97982 | -111.62044 | 19862 ft | 337 kts | 38° |
| 2026-05-07 18:33 | 34.01777 | -111.58661 | 20499 ft | 341 kts | 34° |
| 2026-05-07 18:33 | 34.05789 | -111.55727 | 21134 ft | 344 kts | 32° |
| 2026-05-07 18:33 | 34.09893 | -111.52671 | 21737 ft | 347 kts | 34° |
| 2026-05-07 18:33 | 34.13983 | -111.49531 | 22311 ft | 349 kts | 34° |
| 2026-05-07 18:34 | 34.18097 | -111.46367 | 22880 ft | 351 kts | 34° |
| 2026-05-07 18:34 | 34.22242 | -111.43174 | 23410 ft | 353 kts | 34° |
| 2026-05-07 18:34 | 34.26401 | -111.39971 | 23836 ft | 356 kts | 34° |
| 2026-05-07 18:34 | 34.30530 | -111.36785 | 24201 ft | 357 kts | 34° |
| 2026-05-07 18:35 | 34.34735 | -111.33524 | 24550 ft | 359 kts | 34° |
| 2026-05-07 18:35 | 34.38963 | -111.30259 | 24841 ft | 361 kts | 34° |
| 2026-05-07 18:35 | 34.43200 | -111.26977 | 25118 ft | 362 kts | 34° |
| 2026-05-07 18:35 | 34.47450 | -111.23679 | 25412 ft | 363 kts | 34° |
| 2026-05-07 18:36 | 34.51732 | -111.20352 | 25703 ft | 365 kts | 33° |
| 2026-05-07 18:36 | 34.56007 | -111.17030 | 25936 ft | 367 kts | 33° |
| 2026-05-07 18:36 | 34.60318 | -111.13681 | 26209 ft | 368 kts | 33° |
| 2026-05-07 18:36 | 34.64638 | -111.10461 | 26471 ft | 369 kts | 31° |
| 2026-05-07 18:37 | 34.69181 | -111.07488 | 26717 ft | 371 kts | 29° |
| 2026-05-07 18:37 | 34.73738 | -111.04538 | 26932 ft | 373 kts | 29° |
| 2026-05-07 18:37 | 34.78342 | -111.01553 | 27155 ft | 374 kts | 29° |
| 2026-05-07 18:37 | 34.82946 | -110.98522 | 27390 ft | 376 kts | 29° |
| 2026-05-07 18:38 | 34.87507 | -110.95515 | 27595 ft | 377 kts | 29° |
| 2026-05-07 18:38 | 34.92142 | -110.92467 | 27801 ft | 379 kts | 29° |
| 2026-05-07 18:38 | 34.96793 | -110.89405 | 28005 ft | 380 kts | 29° |
| 2026-05-07 18:38 | 35.01460 | -110.86320 | 28181 ft | 382 kts | 28° |
| 2026-05-07 18:39 | 35.06121 | -110.83243 | 28333 ft | 383 kts | 28° |
| 2026-05-07 18:39 | 35.10826 | -110.80130 | 28477 ft | 384 kts | 28° |
| 2026-05-07 18:39 | 35.14676 | -110.77578 | 28583 ft | 386 kts | 28° |
| 2026-05-07 18:40 | 35.19408 | -110.74440 | 28686 ft | 387 kts | 28° |
| 2026-05-07 18:40 | 35.24149 | -110.71290 | 28782 ft | 388 kts | 28° |
| 2026-05-07 18:40 | 35.26484 | -110.69738 | 28931 ft | 385 kts | 28° |
| 2026-05-07 18:41 | 35.28835 | -110.68175 | 29030 ft | 385 kts | 28° |
| 2026-05-07 18:41 | 35.33560 | -110.65026 | 29068 ft | 387 kts | 28° |
| 2026-05-07 18:42 | 35.38313 | -110.61857 | 29055 ft | 391 kts | 28° |
| 2026-05-07 18:42 | 35.43115 | -110.58652 | 29058 ft | 395 kts | 28° |
| 2026-05-07 18:43 | 35.47961 | -110.55411 | 29056 ft | 398 kts | 28° |
| 2026-05-07 18:43 | 35.52852 | -110.52135 | 29059 ft | 401 kts | 28° |
| 2026-05-07 18:44 | 35.57748 | -110.48855 | 29054 ft | 404 kts | 28° |
| 2026-05-07 18:44 | 35.62734 | -110.45504 | 29053 ft | 407 kts | 28° |
| 2026-05-07 18:45 | 35.67737 | -110.42298 | 29054 ft | 409 kts | 23° |
| 2026-05-07 18:45 | 35.73052 | -110.39726 | 29058 ft | 411 kts | 20° |
| 2026-05-07 18:46 | 35.78352 | -110.37101 | 29058 ft | 414 kts | 22° |
| 2026-05-07 18:46 | 35.83689 | -110.34367 | 29054 ft | 416 kts | 22° |
| 2026-05-07 18:47 | 35.89086 | -110.31601 | 29048 ft | 418 kts | 22° |
| 2026-05-07 18:47 | 35.94441 | -110.28846 | 29052 ft | 420 kts | 21° |
| 2026-05-07 18:48 | 35.99844 | -110.26065 | 29052 ft | 422 kts | 21° |
| 2026-05-07 18:48 | 36.05279 | -110.23264 | 29052 ft | 424 kts | 21° |
| 2026-05-07 18:49 | 36.10738 | -110.20448 | 29044 ft | 425 kts | 21° |
| 2026-05-07 18:49 | 36.16212 | -110.17620 | 29044 ft | 426 kts | 21° |
| 2026-05-07 18:50 | 36.21660 | -110.14799 | 29051 ft | 428 kts | 21° |
| 2026-05-07 18:50 | 36.27169 | -110.11939 | 29057 ft | 429 kts | 21° |
| 2026-05-07 18:51 | 36.32688 | -110.09075 | 29060 ft | 431 kts | 21° |
| 2026-05-07 18:51 | 36.38221 | -110.06195 | 29056 ft | 431 kts | 21° |
| 2026-05-07 18:52 | 36.43768 | -110.03306 | 29057 ft | 432 kts | 21° |
| 2026-05-07 18:52 | 36.49292 | -110.00439 | 29069 ft | 433 kts | 21° |
| 2026-05-07 18:53 | 36.54906 | -109.97689 | 29067 ft | 434 kts | 19° |
| 2026-05-07 18:53 | 36.60592 | -109.95133 | 29065 ft | 434 kts | 19° |
| 2026-05-07 18:54 | 36.66272 | -109.92535 | 29064 ft | 435 kts | 19° |
| 2026-05-07 18:54 | 36.71944 | -109.89937 | 29066 ft | 435 kts | 19° |
| 2026-05-07 18:55 | 36.77639 | -109.87330 | 29064 ft | 435 kts | 19° |
| 2026-05-07 18:55 | 36.83323 | -109.84725 | 29069 ft | 435 kts | 19° |
| 2026-05-07 18:56 | 36.88980 | -109.82126 | 29066 ft | 436 kts | 19° |
| 2026-05-07 18:56 | 36.94673 | -109.79505 | 29068 ft | 436 kts | 19° |
| 2026-05-07 18:57 | 37.00365 | -109.76884 | 29070 ft | 436 kts | 19° |
| 2026-05-07 18:57 | 37.06058 | -109.74256 | 29073 ft | 436 kts | 18° |
| 2026-05-07 18:58 | 37.11754 | -109.71622 | 29077 ft | 436 kts | 18° |
| 2026-05-07 18:58 | 37.17450 | -109.68987 | 29080 ft | 436 kts | 19° |
| 2026-05-07 18:59 | 37.23152 | -109.66339 | 29090 ft | 437 kts | 18° |
| 2026-05-07 18:59 | 37.28821 | -109.63706 | 29105 ft | 437 kts | 18° |
| 2026-05-07 19:00 | 37.34531 | -109.61050 | 29141 ft | 437 kts | 18° |
| 2026-05-07 19:00 | 37.40236 | -109.58396 | 29171 ft | 437 kts | 18° |
| 2026-05-07 19:01 | 37.45936 | -109.55736 | 29194 ft | 437 kts | 18° |
| 2026-05-07 19:01 | 37.51645 | -109.53062 | 29219 ft | 437 kts | 18° |
| 2026-05-07 19:02 | 37.57354 | -109.50391 | 29224 ft | 437 kts | 18° |
| 2026-05-07 19:02 | 37.63060 | -109.47713 | 29219 ft | 438 kts | 18° |
| 2026-05-07 19:03 | 37.68737 | -109.45045 | 29209 ft | 438 kts | 18° |
| 2026-05-07 19:03 | 37.74442 | -109.42360 | 29181 ft | 438 kts | 18° |
| 2026-05-07 19:04 | 37.79869 | -109.38878 | 28171 ft | 440 kts | 32° |
| 2026-05-07 19:04 | 37.82330 | -109.36580 | 27454 ft | 433 kts | 34° |
| 2026-05-07 19:04 | 37.84656 | -109.34320 | 27197 ft | 411 kts | 34° |
| 2026-05-07 19:04 | 37.86891 | -109.32215 | 26823 ft | 389 kts | 32° |
| 2026-05-07 19:05 | 37.89037 | -109.30300 | 26454 ft | 371 kts | 31° |
| 2026-05-07 19:05 | 37.91118 | -109.28466 | 26084 ft | 355 kts | 31° |
| 2026-05-07 19:05 | 37.93099 | -109.26702 | 25730 ft | 342 kts | 31° |
| 2026-05-07 19:05 | 37.95077 | -109.24965 | 24758 ft | 355 kts | 30° |
| 2026-05-07 19:06 | 37.97158 | -109.23143 | 23995 ft | 367 kts | 30° |
| 2026-05-07 19:06 | 38.01456 | -109.19310 | 22922 ft | 389 kts | 31° |
| 2026-05-07 19:06 | 38.03689 | -109.17300 | 22434 ft | 398 kts | 31° |
| 2026-05-07 19:07 | 38.05971 | -109.15245 | 21920 ft | 407 kts | 31° |
| 2026-05-07 19:07 | 38.08270 | -109.13178 | 21428 ft | 414 kts | 31° |
| 2026-05-07 19:07 | 38.10645 | -109.11047 | 20942 ft | 421 kts | 31° |
| 2026-05-07 19:07 | 38.13059 | -109.08879 | 20462 ft | 427 kts | 31° |
| 2026-05-07 19:08 | 38.15496 | -109.06684 | 20069 ft | 431 kts | 31° |
| 2026-05-07 19:08 | 38.17947 | -109.04477 | 19684 ft | 434 kts | 32° |
| 2026-05-07 19:08 | 38.20416 | -109.02251 | 19297 ft | 437 kts | 32° |
| 2026-05-07 19:08 | 38.22097 | -109.00736 | 19040 ft | 438 kts | 32° |
| 2026-05-07 19:09 | 38.24571 | -108.98499 | 18653 ft | 434 kts | 32° |
| 2026-05-07 19:09 | 38.27018 | -108.96286 | 18285 ft | 430 kts | 32° |
| 2026-05-07 19:09 | 38.29424 | -108.94114 | 17887 ft | 427 kts | 32° |
| 2026-05-07 19:09 | 38.31869 | -108.91909 | 17499 ft | 424 kts | 32° |
| 2026-05-07 19:10 | 38.34269 | -108.89736 | 17118 ft | 422 kts | 32° |
| 2026-05-07 19:10 | 38.36650 | -108.87572 | 16751 ft | 419 kts | 32° |
| 2026-05-07 19:10 | 38.38993 | -108.85442 | 16398 ft | 417 kts | 32° |
| 2026-05-07 19:10 | 38.41359 | -108.83294 | 16036 ft | 415 kts | 32° |
| 2026-05-07 19:11 | 38.43692 | -108.81181 | 15694 ft | 409 kts | 33° |
| 2026-05-07 19:11 | 38.46006 | -108.79076 | 15359 ft | 402 kts | 33° |
| 2026-05-07 19:11 | 38.48274 | -108.77009 | 15023 ft | 397 kts | 33° |
| 2026-05-07 19:11 | 38.50477 | -108.74996 | 14702 ft | 392 kts | 33° |
| 2026-05-07 19:12 | 38.52712 | -108.72957 | 14376 ft | 388 kts | 33° |
| 2026-05-07 19:12 | 38.54856 | -108.71004 | 14081 ft | 381 kts | 33° |
| 2026-05-07 19:12 | 38.56998 | -108.69054 | 13753 ft | 372 kts | 33° |
| 2026-05-07 19:12 | 38.59083 | -108.67159 | 13418 ft | 363 kts | 33° |
| 2026-05-07 19:13 | 38.61111 | -108.65291 | 13110 ft | 357 kts | 33° |
| 2026-05-07 19:13 | 38.63117 | -108.63456 | 12778 ft | 350 kts | 33° |
| 2026-05-07 19:13 | 38.65086 | -108.61655 | 12467 ft | 345 kts | 33° |
| 2026-05-07 19:13 | 38.67024 | -108.59881 | 12180 ft | 340 kts | 33° |
| 2026-05-07 19:14 | 38.68939 | -108.58135 | 11884 ft | 336 kts | 33° |
| 2026-05-07 19:14 | 38.70840 | -108.56396 | 11533 ft | 335 kts | 33° |
| 2026-05-07 19:14 | 38.72723 | -108.54653 | 11213 ft | 333 kts | 34° |
| 2026-05-07 19:14 | 38.74597 | -108.52915 | 10890 ft | 332 kts | 34° |
| 2026-05-07 19:15 | 38.76444 | -108.51205 | 10580 ft | 331 kts | 34° |
| 2026-05-07 19:15 | 38.78315 | -108.49503 | 10346 ft | 327 kts | 34° |
| 2026-05-07 19:15 | 38.80137 | -108.47819 | 10252 ft | 319 kts | 34° |
| 2026-05-07 19:15 | 38.81917 | -108.46192 | 10224 ft | 310 kts | 32° |
| 2026-05-07 19:16 | 38.83637 | -108.44613 | 10235 ft | 300 kts | 35° |
| 2026-05-07 19:16 | 38.85284 | -108.43018 | 10228 ft | 291 kts | 35° |
| 2026-05-07 19:16 | 38.86929 | -108.41575 | 10144 ft | 285 kts | 31° |
| 2026-05-07 19:16 | 38.88595 | -108.40233 | 9919 ft | 283 kts | 29° |
| 2026-05-07 19:17 | 38.90321 | -108.39021 | 9657 ft | 280 kts | 23° |
| 2026-05-07 19:17 | 38.92085 | -108.37995 | 9379 ft | 277 kts | 21° |
| 2026-05-07 19:17 | 38.93861 | -108.37017 | 9085 ft | 278 kts | 20° |
| 2026-05-07 19:17 | 38.95644 | -108.36071 | 8805 ft | 277 kts | 16° |
| 2026-05-07 19:18 | 38.97525 | -108.35849 | 8525 ft | 271 kts | 348° |
| 2026-05-07 19:18 | 38.99183 | -108.36766 | 8231 ft | 256 kts | 320° |
| 2026-05-07 19:18 | 39.00309 | -108.38390 | 8265 ft | 229 kts | 307° |
| 2026-05-07 19:18 | 39.01118 | -108.39986 | 8252 ft | 197 kts | 295° |
| 2026-05-07 19:19 | 39.01668 | -108.41530 | 7879 ft | 188 kts | 293° |
| 2026-05-07 19:19 | 39.02453 | -108.42812 | 7381 ft | 180 kts | 326° |
| 2026-05-07 19:19 | 39.03420 | -108.43641 | 7172 ft | 153 kts | 322° |
| 2026-05-07 19:19 | 39.04231 | -108.44412 | 6870 ft | 142 kts | 323° |
| 2026-05-07 19:20 | 39.05036 | -108.45152 | 6596 ft | 144 kts | 324° |
| 2026-05-07 19:20 | 39.05868 | -108.45883 | 6334 ft | 146 kts | 326° |
| 2026-05-07 19:20 | 39.06726 | -108.46610 | 6094 ft | 148 kts | 326° |
| 2026-05-07 19:20 | 39.07572 | -108.47361 | 5867 ft | 146 kts | 325° |
| 2026-05-07 19:21 | 39.08436 | -108.48069 | 5607 ft | 149 kts | 330° |
| 2026-05-07 19:21 | 39.09365 | -108.48697 | 5460 ft | 156 kts | 333° |
| 2026-05-07 19:21 | 39.10358 | -108.49382 | 5323 ft | 162 kts | 328° |
| 2026-05-07 19:21 | 39.11208 | -108.50319 | 5104 ft | 158 kts | 311° |
| 2026-05-07 19:22 | 39.11841 | -108.51418 | 4878 ft | 152 kts | 304° |
| 2026-05-07 19:22 | 39.12386 | -108.52412 | 4854 ft | 115 kts | 306° |
| 2026-05-07 19:22 | 39.12763 | -108.53100 | 4849 ft | 70 kts | 305° |
| 2026-05-07 19:22 | 39.12944 | -108.53427 | 4851 ft | 28 kts | 306° |
| 2026-05-07 19:23 | 39.12970 | -108.53592 | 4847 ft | 20 kts | 227° |
| 2026-05-07 19:23 | 39.12925 | -108.53615 | 4842 ft | 0 kts | 152° |
| 2026-05-07 19:23 | 39.12911 | -108.53602 | 4841 ft | 8 kts | 135° |
| 2026-05-07 19:24 | 39.12848 | -108.53495 | 4841 ft | 20 kts | 125° |
| 2026-05-07 19:24 | 39.12759 | -108.53335 | 4841 ft | 24 kts | 125° |
| 2026-05-07 19:24 | 39.12659 | -108.53153 | 4841 ft | 27 kts | 125° |
| 2026-05-07 19:24 | 39.12542 | -108.52940 | 4841 ft | 30 kts | 125° |
| 2026-05-07 19:25 | 39.12452 | -108.52791 | 4840 ft | 10 kts | 163° |
| 2026-05-07 19:25 | 39.12384 | -108.52851 | 4838 ft | 14 kts | 231° |
| 2026-05-07 19:25 | 39.12345 | -108.52900 | 4838 ft | 3 kts | 216° |
| 2026-05-07 19:25 | 39.12339 | -108.52906 | 4839 ft | 0 kts | 216° |